Terminal Aerodrome Forecast
Issued by NWS

Home | Current Version | Previous Version | Text Only | Print | Product List | Glossary On
Versions: 1 2 3 4 5 6 7 8 9 10 11 12 13 14 15 16 17 18 19
000
FTUS45 KSLC 242045 AAA
TAF36U
TAF AMD
K36U 242045Z 2421/2518 24008KT P6SM SCT060 SCT120
     FM250600 VRB04KT P6SM SCT060 BKN100
     FM251200 15006KT P6SM SCT050 BKN080
     FM251400 18007KT P6SM -RASN BKN030=

USA.gov is the U.S. government's official web portal to all federal, state and local government web resources and services.